Time;durP1;ratioP1;P1;durP2;ratioP2;P2;SDS_P1;SDS_P2;PMS_P1;PMS_P2;Temp;Humidity;BMP_temperature;BMP_pressure;BME280_temperature;BME280_humidity;BME280_pressure;Samples;Min_cycle;Max_cycle;Signal;HPM_P1;HPM_P2
2022/07/03 00:01:16;;;;;;;7.47;4.93;;;;;;;;;;4977210;28;20029;-78
2022/07/03 00:03:42;;;;;;;6.95;5.07;;;;;;;;;;4981945;28;20037;-79
2022/07/03 00:06:08;;;;;;;6.90;4.82;;;;;;;;;;4977833;28;20027;-78
2022/07/03 00:08:34;;;;;;;6.95;4.65;;;;;;;;;;4993733;28;20045;-78
2022/07/03 00:11:00;;;;;;;7.32;5.13;;;;;;;;;;4996385;28;20026;-79
2022/07/03 00:13:26;;;;;;;8.43;5.10;;;;;;;;;;4996575;28;20022;-79
2022/07/03 00:15:52;;;;;;;7.57;4.88;;;;;;;;;;4995688;28;20030;-78
2022/07/03 00:18:18;;;;;;;8.80;5.85;;;;;;;;;;4997671;28;20037;-78
2022/07/03 00:20:46;;;;;;;7.30;5.05;;;;;;;;;;4996427;28;20373;-78
2022/07/03 00:23:14;;;;;;;7.38;4.75;;;;;;;;;;4996455;28;20037;-78
2022/07/03 00:25:40;;;;;;;7.10;5.50;;;;;;;;;;4995947;28;20519;-79
2022/07/03 00:28:08;;;;;;;7.93;5.80;;;;;;;;;;4995196;28;20033;-78
2022/07/03 00:30:34;;;;;;;7.57;4.88;;;;;;;;;;4994261;28;20041;-79
2022/07/03 00:33:04;;;;;;;7.85;5.70;;;;;;;;;;5012418;28;20510;-79
2022/07/03 00:35:35;;;;;;;7.18;4.85;;;;;;;;;;5015716;28;20072;-78
2022/07/03 00:38:01;;;;;;;9.05;5.32;;;;;;;;;;5016024;28;20029;-79
2022/07/03 00:40:27;;;;;;;7.53;4.97;;;;;;;;;;4996263;28;20113;-78
2022/07/03 00:42:53;;;;;;;6.57;4.85;;;;;;;;;;4995909;28;20068;-79
2022/07/03 00:45:22;;;;;;;7.95;5.32;;;;;;;;;;4997354;28;20054;-79
2022/07/03 00:47:48;;;;;;;6.88;5.18;;;;;;;;;;5013268;28;20037;-78
2022/07/03 00:50:15;;;;;;;7.22;5.28;;;;;;;;;;5009869;28;20035;-79
2022/07/03 00:52:46;;;;;;;7.05;4.78;;;;;;;;;;4992043;28;20026;-79
2022/07/03 00:55:15;;;;;;;7.47;5.30;;;;;;;;;;4995967;28;20453;-78
2022/07/03 00:57:44;;;;;;;7.80;5.47;;;;;;;;;;4996472;28;20022;-78
2022/07/03 01:00:11;;;;;;;7.93;5.47;;;;;;;;;;4999961;28;20030;-78
2022/07/03 01:02:49;;;;;;;7.65;5.18;;;;;;;;;;4993155;28;20037;-78
2022/07/03 01:05:32;;;;;;;7.13;4.90;;;;;;;;;;4993719;28;20023;-79
2022/07/03 01:08:16;;;;;;;6.72;5.13;;;;;;;;;;4981437;28;20026;-78
2022/07/03 01:10:55;;;;;;;8.15;5.38;;;;;;;;;;4995396;28;20069;-78
2022/07/03 01:13:24;;;;;;;7.97;5.20;;;;;;;;;;4977160;28;20417;-78
2022/07/03 01:16:09;;;;;;;7.22;5.05;;;;;;;;;;4992816;28;20026;-79
2022/07/03 01:18:53;;;;;;;8.20;5.25;;;;;;;;;;4987948;28;20381;-78
2022/07/03 01:21:35;;;;;;;8.63;5.65;;;;;;;;;;4975991;28;20027;-78
2022/07/03 01:24:20;;;;;;;8.00;5.50;;;;;;;;;;4980055;28;20547;-78
2022/07/03 01:26:47;;;;;;;7.75;5.70;;;;;;;;;;4995563;28;20034;-78
2022/07/03 01:29:26;;;;;;;7.55;5.60;;;;;;;;;;4999864;28;20026;-78
2022/07/03 01:31:54;;;;;;;7.50;5.55;;;;;;;;;;4999586;28;20049;-78
2022/07/03 01:34:22;;;;;;;8.55;5.45;;;;;;;;;;4997753;28;20063;-78
2022/07/03 01:36:50;;;;;;;8.35;6.07;;;;;;;;;;5006582;28;20026;-78
2022/07/03 01:39:17;;;;;;;8.07;5.82;;;;;;;;;;5007417;28;20274;-78
2022/07/03 01:41:48;;;;;;;7.93;5.55;;;;;;;;;;4998166;28;20434;-77
2022/07/03 01:44:16;;;;;;;8.05;5.60;;;;;;;;;;4997999;28;20049;-78
2022/07/03 01:46:45;;;;;;;8.02;5.97;;;;;;;;;;4999254;28;20477;-78
2022/07/03 01:49:13;;;;;;;8.30;6.20;;;;;;;;;;4999401;28;20499;-78
2022/07/03 01:51:39;;;;;;;8.13;5.88;;;;;;;;;;4998741;28;20090;-78
2022/07/03 01:54:06;;;;;;;7.55;5.53;;;;;;;;;;4996754;28;20076;-78
2022/07/03 01:56:33;;;;;;;7.97;5.13;;;;;;;;;;4984844;28;20110;-78
2022/07/03 01:59:00;;;;;;;8.48;5.63;;;;;;;;;;4999104;28;20050;-78
2022/07/03 02:01:32;;;;;;;9.00;5.75;;;;;;;;;;4998254;28;20030;-78
2022/07/03 02:03:58;;;;;;;8.00;5.75;;;;;;;;;;4995969;28;20564;-78
2022/07/03 02:06:31;;;;;;;8.40;6.30;;;;;;;;;;4996839;28;20078;-78
2022/07/03 02:09:02;;;;;;;9.55;6.03;;;;;;;;;;5002452;28;20404;-79
2022/07/03 02:11:28;;;;;;;8.93;5.70;;;;;;;;;;4997266;28;20030;-78
2022/07/03 02:14:00;;;;;;;8.77;6.22;;;;;;;;;;4994190;28;20449;-80
2022/07/03 02:16:26;;;;;;;9.18;6.35;;;;;;;;;;4996304;28;20029;-79
2022/07/03 02:18:55;;;;;;;8.68;6.20;;;;;;;;;;4998766;28;20031;-78
2022/07/03 02:21:22;;;;;;;9.85;6.55;;;;;;;;;;4996240;28;20036;-79
2022/07/03 02:23:58;;;;;;;8.35;6.05;;;;;;;;;;4996414;28;20041;-78
2022/07/03 02:26:34;;;;;;;9.05;6.20;;;;;;;;;;4994361;28;20035;-78
2022/07/03 02:29:00;;;;;;;10.00;7.00;;;;;;;;;;4994142;28;20057;-78
2022/07/03 02:31:27;;;;;;;10.25;6.45;;;;;;;;;;4995995;28;20026;-78
2022/07/03 02:33:58;;;;;;;9.50;6.20;;;;;;;;;;4993439;28;20022;-79
2022/07/03 02:36:24;;;;;;;10.10;7.60;;;;;;;;;;4996459;28;20150;-79
2022/07/03 02:38:54;;;;;;;9.27;6.72;;;;;;;;;;4995346;28;20033;-78
2022/07/03 02:41:55;;;;;;;9.10;6.65;;;;;;;;;;4994546;28;20022;-78
2022/07/03 02:44:24;;;;;;;9.15;6.75;;;;;;;;;;4939732;29;20035;-78
2022/07/03 02:46:53;;;;;;;8.98;6.57;;;;;;;;;;4954203;29;20214;-78
2022/07/03 02:49:37;;;;;;;9.02;6.65;;;;;;;;;;4937160;29;20506;-78
2022/07/03 02:52:11;;;;;;;8.85;6.25;;;;;;;;;;4945148;29;20047;-78
2022/07/03 02:54:46;;;;;;;8.85;6.15;;;;;;;;;;4934197;29;20115;-78
2022/07/03 02:57:15;;;;;;;8.75;6.30;;;;;;;;;;4927427;29;20039;-77
2022/07/03 02:59:46;;;;;;;8.73;6.60;;;;;;;;;;4931384;29;20040;-78
2022/07/03 03:02:24;;;;;;;9.85;6.28;;;;;;;;;;4933177;29;20051;-78
2022/07/03 03:04:56;;;;;;;8.27;6.00;;;;;;;;;;4915498;29;20044;-77
2022/07/03 03:07:27;;;;;;;9.40;6.22;;;;;;;;;;4936230;29;20118;-78
2022/07/03 03:09:54;;;;;;;9.07;6.45;;;;;;;;;;4933164;29;20099;-78
2022/07/03 03:12:27;;;;;;;10.88;6.53;;;;;;;;;;4932768;29;20409;-78
2022/07/03 03:14:59;;;;;;;8.73;6.50;;;;;;;;;;4932912;29;20494;-78
2022/07/03 03:17:26;;;;;;;8.33;6.40;;;;;;;;;;4949079;28;20027;-78
2022/07/03 03:19:55;;;;;;;9.13;6.68;;;;;;;;;;5001538;28;20396;-78
2022/07/03 03:22:21;;;;;;;10.15;6.43;;;;;;;;;;4993218;28;20048;-79
2022/07/03 03:24:47;;;;;;;10.10;6.80;;;;;;;;;;5002999;28;20391;-78
2022/07/03 03:27:13;;;;;;;9.30;6.20;;;;;;;;;;5001179;28;20457;-78
2022/07/03 03:29:40;;;;;;;9.52;6.78;;;;;;;;;;4992378;28;20034;-78
2022/07/03 03:32:06;;;;;;;9.77;6.72;;;;;;;;;;4996224;28;20500;-79
2022/07/03 03:34:33;;;;;;;10.02;6.50;;;;;;;;;;4993649;28;20047;-79
2022/07/03 03:36:59;;;;;;;9.65;7.15;;;;;;;;;;5000874;28;20109;-79
2022/07/03 03:39:25;;;;;;;8.95;7.03;;;;;;;;;;4995436;28;20477;-78
2022/07/03 03:41:53;;;;;;;10.10;6.93;;;;;;;;;;4996502;28;20071;-79
2022/07/03 03:44:19;;;;;;;10.43;7.57;;;;;;;;;;4994886;28;20090;-79
2022/07/03 03:46:45;;;;;;;9.38;7.60;;;;;;;;;;4998599;28;20029;-79
2022/07/03 03:49:11;;;;;;;9.20;7.30;;;;;;;;;;4989597;28;20030;-78
2022/07/03 03:51:37;;;;;;;9.07;7.05;;;;;;;;;;4992320;28;20512;-78
2022/07/03 03:54:04;;;;;;;9.15;6.70;;;;;;;;;;4995136;28;20038;-78
2022/07/03 03:56:30;;;;;;;10.23;7.03;;;;;;;;;;4995342;28;20022;-78
2022/07/03 03:58:57;;;;;;;8.90;6.75;;;;;;;;;;5015809;28;20022;-78
2022/07/03 04:01:23;;;;;;;9.50;6.90;;;;;;;;;;5015366;28;20066;-79
2022/07/03 04:03:49;;;;;;;8.77;6.85;;;;;;;;;;5015353;28;20022;-79
2022/07/03 04:06:15;;;;;;;9.52;7.03;;;;;;;;;;5015149;28;20026;-79
2022/07/03 04:08:41;;;;;;;10.13;7.15;;;;;;;;;;5015718;28;20022;-79
2022/07/03 04:11:07;;;;;;;9.10;6.78;;;;;;;;;;5015358;28;20492;-79
2022/07/03 04:13:33;;;;;;;8.98;6.97;;;;;;;;;;5013887;28;20022;-78
2022/07/03 04:15:59;;;;;;;10.30;7.63;;;;;;;;;;5000681;28;20018;-79
2022/07/03 04:18:25;;;;;;;8.68;6.57;;;;;;;;;;5014490;28;20028;-78
2022/07/03 04:20:51;;;;;;;8.98;6.82;;;;;;;;;;5015247;28;20029;-78
2022/07/03 04:23:17;;;;;;;10.02;6.97;;;;;;;;;;5014530;28;20091;-79
2022/07/03 04:25:43;;;;;;;10.07;7.15;;;;;;;;;;4997679;28;20030;-79
2022/07/03 04:28:10;;;;;;;9.65;7.18;;;;;;;;;;5015565;28;20109;-78
2022/07/03 04:30:36;;;;;;;9.45;6.68;;;;;;;;;;5015056;28;20559;-79
2022/07/03 04:33:02;;;;;;;9.10;6.70;;;;;;;;;;5011350;28;20062;-78
2022/07/03 04:35:28;;;;;;;10.73;7.97;;;;;;;;;;5015398;28;20098;-79
2022/07/03 04:37:54;;;;;;;10.10;7.60;;;;;;;;;;5015089;28;20060;-79
2022/07/03 04:40:20;;;;;;;9.75;7.50;;;;;;;;;;5015056;28;20587;-79
2022/07/03 04:42:46;;;;;;;9.77;6.97;;;;;;;;;;4994768;28;20037;-78
2022/07/03 04:45:12;;;;;;;10.10;7.35;;;;;;;;;;4995295;28;20027;-79
2022/07/03 04:47:38;;;;;;;9.18;7.32;;;;;;;;;;4994556;28;20094;-79
2022/07/03 04:50:04;;;;;;;9.77;6.95;;;;;;;;;;4995000;28;20027;-78
2022/07/03 04:52:30;;;;;;;8.35;6.53;;;;;;;;;;5012924;28;20496;-79
2022/07/03 04:54:56;;;;;;;9.48;7.07;;;;;;;;;;5014660;28;20018;-79
2022/07/03 04:57:22;;;;;;;8.85;7.40;;;;;;;;;;5014893;28;20048;-79
2022/07/03 04:59:48;;;;;;;9.02;7.72;;;;;;;;;;4998952;28;20081;-79
2022/07/03 05:02:14;;;;;;;8.48;6.72;;;;;;;;;;4994613;28;20030;-79
2022/07/03 05:04:40;;;;;;;9.55;7.10;;;;;;;;;;4994797;28;20142;-79
2022/07/03 05:07:06;;;;;;;8.90;7.13;;;;;;;;;;4994323;28;20030;-78
2022/07/03 05:09:32;;;;;;;10.00;7.65;;;;;;;;;;5006868;28;20434;-78
2022/07/03 05:11:58;;;;;;;9.98;7.57;;;;;;;;;;5003637;28;20046;-79
2022/07/03 05:14:24;;;;;;;9.48;6.80;;;;;;;;;;4994975;28;20079;-79
2022/07/03 05:16:50;;;;;;;10.30;7.55;;;;;;;;;;4995350;28;20396;-78
2022/07/03 05:19:16;;;;;;;8.60;6.85;;;;;;;;;;5004225;28;20030;-79
2022/07/03 05:21:42;;;;;;;8.85;6.90;;;;;;;;;;5014378;28;20466;-79
2022/07/03 05:24:09;;;;;;;9.77;7.53;;;;;;;;;;5014665;28;20030;-79
2022/07/03 05:26:35;;;;;;;8.80;7.00;;;;;;;;;;5013125;28;20026;-79
2022/07/03 05:29:01;;;;;;;9.30;7.30;;;;;;;;;;5014776;28;20030;-79
2022/07/03 05:31:26;;;;;;;10.20;7.60;;;;;;;;;;5014055;28;20102;-79
2022/07/03 05:33:52;;;;;;;11.57;7.38;;;;;;;;;;5014058;28;20476;-79
2022/07/03 05:36:19;;;;;;;9.32;6.60;;;;;;;;;;4997774;28;20080;-79
2022/07/03 05:41:29;;;;;;;8.85;7.03;;;;;;;;;;5014373;28;20469;-79
2022/07/03 05:43:57;;;;;;;9.95;7.07;;;;;;;;;;5014141;28;20057;-78
2022/07/03 05:46:23;;;;;;;9.20;7.18;;;;;;;;;;5012876;28;20052;-79
2022/07/03 05:48:49;;;;;;;8.98;6.78;;;;;;;;;;5014311;28;20022;-79
2022/07/03 05:51:15;;;;;;;10.43;7.63;;;;;;;;;;5013856;28;20160;-79
2022/07/03 05:53:41;;;;;;;8.90;7.00;;;;;;;;;;5016047;28;20184;-79
2022/07/03 05:56:07;;;;;;;9.60;7.30;;;;;;;;;;5003536;28;20019;-79
2022/07/03 05:58:33;;;;;;;10.25;7.63;;;;;;;;;;5007454;28;20547;-79
2022/07/03 06:00:59;;;;;;;9.93;7.60;;;;;;;;;;4995780;28;20366;-79
2022/07/03 06:03:25;;;;;;;9.02;7.55;;;;;;;;;;4997085;28;20022;-79
2022/07/03 06:05:51;;;;;;;9.70;7.70;;;;;;;;;;4996842;28;20057;-79
2022/07/03 06:08:17;;;;;;;10.23;8.13;;;;;;;;;;5010637;28;20033;-79
2022/07/03 06:10:43;;;;;;;10.35;7.47;;;;;;;;;;5015072;28;20026;-79
2022/07/03 06:13:09;;;;;;;10.27;7.80;;;;;;;;;;5016060;28;20559;-80
2022/07/03 06:15:35;;;;;;;8.68;6.95;;;;;;;;;;5020088;28;20022;-80
2022/07/03 06:18:01;;;;;;;9.50;7.82;;;;;;;;;;5017519;28;20034;-79
2022/07/03 06:20:27;;;;;;;10.07;7.32;;;;;;;;;;5019687;28;20018;-79
2022/07/03 06:22:53;;;;;;;9.60;7.40;;;;;;;;;;5009466;28;20065;-79
2022/07/03 06:25:19;;;;;;;8.88;7.50;;;;;;;;;;5000257;28;20022;-79
2022/07/03 06:27:45;;;;;;;9.77;7.35;;;;;;;;;;4999503;28;20035;-79
2022/07/03 06:30:11;;;;;;;8.35;6.75;;;;;;;;;;4999217;28;20058;-80
2022/07/03 06:32:37;;;;;;;9.35;7.57;;;;;;;;;;4999003;28;20026;-79
2022/07/03 06:35:04;;;;;;;8.52;6.75;;;;;;;;;;5000122;28;20118;-79
2022/07/03 06:37:30;;;;;;;7.82;6.75;;;;;;;;;;4999386;28;20030;-80
2022/07/03 06:39:56;;;;;;;7.75;6.47;;;;;;;;;;5000006;28;20019;-80
2022/07/03 06:42:22;;;;;;;8.27;6.20;;;;;;;;;;4999333;28;20022;-80
2022/07/03 06:44:48;;;;;;;9.52;6.47;;;;;;;;;;4999578;28;20500;-80
2022/07/03 06:47:14;;;;;;;9.48;6.75;;;;;;;;;;5006039;28;20026;-79
2022/07/03 06:49:40;;;;;;;7.10;5.82;;;;;;;;;;5019964;28;20028;-80
2022/07/03 06:52:06;;;;;;;7.20;5.93;;;;;;;;;;5019189;28;20026;-79
2022/07/03 06:54:32;;;;;;;8.63;6.60;;;;;;;;;;5013234;28;20026;-79
2022/07/03 06:56:58;;;;;;;7.88;6.40;;;;;;;;;;5001943;28;20022;-79
2022/07/03 06:59:24;;;;;;;7.43;6.20;;;;;;;;;;5019568;28;20112;-80
2022/07/03 07:01:51;;;;;;;8.48;6.05;;;;;;;;;;5018445;28;20057;-79
2022/07/03 07:04:17;;;;;;;7.82;6.05;;;;;;;;;;5018933;28;20018;-80
2022/07/03 07:06:42;;;;;;;7.60;6.05;;;;;;;;;;5017720;28;20053;-79
2022/07/03 07:09:09;;;;;;;8.30;6.55;;;;;;;;;;5019035;28;20028;-79
2022/07/03 07:11:35;;;;;;;7.60;5.80;;;;;;;;;;5020463;28;20112;-79
2022/07/03 07:14:01;;;;;;;7.82;5.57;;;;;;;;;;5020646;28;20029;-80
2022/07/03 07:16:29;;;;;;;7.18;6.00;;;;;;;;;;5016057;28;20030;-79
2022/07/03 07:18:55;;;;;;;7.55;5.63;;;;;;;;;;4999714;28;20045;-80
2022/07/03 07:21:21;;;;;;;6.80;5.38;;;;;;;;;;4999468;28;20054;-80
2022/07/03 07:23:47;;;;;;;8.32;6.28;;;;;;;;;;4999143;28;20034;-80
2022/07/03 07:26:13;;;;;;;6.72;5.30;;;;;;;;;;5013854;28;20623;-80
2022/07/03 07:28:39;;;;;;;6.82;5.25;;;;;;;;;;5018442;28;20025;-80
2022/07/03 07:31:05;;;;;;;6.55;5.30;;;;;;;;;;5018599;28;20026;-80
2022/07/03 07:33:31;;;;;;;7.97;5.78;;;;;;;;;;5018121;28;20033;-80
2022/07/03 07:35:59;;;;;;;7.72;5.72;;;;;;;;;;5016709;28;20037;-79
2022/07/03 07:38:25;;;;;;;7.20;5.43;;;;;;;;;;5018565;28;20022;-80
2022/07/03 07:40:51;;;;;;;8.15;5.57;;;;;;;;;;5018685;28;20036;-81
2022/07/03 07:43:17;;;;;;;7.50;5.18;;;;;;;;;;4999775;28;20431;-80
2022/07/03 07:45:43;;;;;;;7.03;5.43;;;;;;;;;;5009764;28;20058;-80
2022/07/03 07:48:09;;;;;;;6.78;5.57;;;;;;;;;;5018772;28;20029;-81
2022/07/03 07:50:35;;;;;;;6.55;5.07;;;;;;;;;;5018218;28;20381;-80
2022/07/03 07:53:01;;;;;;;7.75;4.95;;;;;;;;;;5018100;28;20045;-80
2022/07/03 07:55:27;;;;;;;6.95;4.93;;;;;;;;;;5005264;28;20030;-80
2022/07/03 07:57:53;;;;;;;7.10;5.38;;;;;;;;;;5009078;28;20041;-81
2022/07/03 08:00:21;;;;;;;7.03;5.15;;;;;;;;;;5018692;28;20022;-79
2022/07/03 08:05:35;;;;;;;7.07;5.35;;;;;;;;;;4993867;28;20062;-80
2022/07/03 08:08:02;;;;;;;6.63;5.38;;;;;;;;;;4985756;28;20388;-79
2022/07/03 08:10:28;;;;;;;6.95;5.00;;;;;;;;;;4985339;28;20103;-79
2022/07/03 08:12:54;;;;;;;7.05;5.20;;;;;;;;;;4985747;28;20090;-79
2022/07/03 08:15:20;;;;;;;6.65;4.88;;;;;;;;;;4996620;28;20041;-79
2022/07/03 08:17:46;;;;;;;6.65;5.05;;;;;;;;;;5007033;28;20025;-79
2022/07/03 08:20:12;;;;;;;6.15;4.88;;;;;;;;;;5005011;28;20030;-79
2022/07/03 08:22:38;;;;;;;6.55;4.70;;;;;;;;;;5003595;28;20026;-80
2022/07/03 08:25:05;;;;;;;6.88;4.22;;;;;;;;;;5004392;28;20026;-80
2022/07/03 08:27:31;;;;;;;5.80;4.50;;;;;;;;;;5018233;28;20509;-80
2022/07/03 08:29:57;;;;;;;5.90;4.20;;;;;;;;;;5018085;28;20033;-82
2022/07/03 08:32:23;;;;;;;5.50;4.05;;;;;;;;;;5002714;28;20030;-80
2022/07/03 08:34:49;;;;;;;6.10;4.38;;;;;;;;;;5005942;28;20091;-80
2022/07/03 08:37:15;;;;;;;6.20;4.32;;;;;;;;;;5016979;28;20018;-82
2022/07/03 08:39:41;;;;;;;5.95;4.40;;;;;;;;;;5017960;28;20025;-80
2022/07/03 08:42:07;;;;;;;5.60;4.22;;;;;;;;;;5017640;28;20029;-80
2022/07/03 08:44:36;;;;;;;5.70;4.20;;;;;;;;;;5008779;28;20022;-81
2022/07/03 08:47:03;;;;;;;10.98;5.88;;;;;;;;;;4997628;28;20026;-81
2022/07/03 08:49:29;;;;;;;6.53;5.05;;;;;;;;;;4996126;28;20050;-81
2022/07/03 08:51:55;;;;;;;6.63;4.75;;;;;;;;;;4997322;28;20428;-81
2022/07/03 08:54:22;;;;;;;5.90;4.25;;;;;;;;;;5002559;28;20018;-81
2022/07/03 08:56:48;;;;;;;6.00;4.72;;;;;;;;;;4998151;28;20056;-81
2022/07/03 08:59:14;;;;;;;6.85;4.40;;;;;;;;;;5004519;28;20096;-80
2022/07/03 09:01:44;;;;;;;6.60;4.22;;;;;;;;;;5007607;28;20040;-80
2022/07/03 09:04:14;;;;;;;5.60;3.90;;;;;;;;;;5010120;28;20033;-80
2022/07/03 09:06:41;;;;;;;5.72;4.20;;;;;;;;;;5013502;28;20030;-80
2022/07/03 09:09:10;;;;;;;6.28;4.43;;;;;;;;;;5011252;28;20010;-80
2022/07/03 09:11:39;;;;;;;6.53;4.15;;;;;;;;;;5001697;28;20105;-81
2022/07/03 09:14:06;;;;;;;6.03;3.95;;;;;;;;;;4997876;28;20404;-80
2022/07/03 09:16:35;;;;;;;5.32;3.85;;;;;;;;;;4997591;28;20030;-81
2022/07/03 09:19:02;;;;;;;5.75;4.00;;;;;;;;;;4997705;28;20019;-81
2022/07/03 09:21:36;;;;;;;6.28;3.70;;;;;;;;;;4997806;28;20030;-81
2022/07/03 09:24:05;;;;;;;5.85;3.75;;;;;;;;;;4996850;28;20446;-80
2022/07/03 09:26:31;;;;;;;5.25;3.85;;;;;;;;;;4997426;28;20531;-80
2022/07/03 09:28:58;;;;;;;5.72;4.30;;;;;;;;;;4997734;28;20470;-80
2022/07/03 09:31:25;;;;;;;5.47;3.63;;;;;;;;;;4997470;28;20057;-81
2022/07/03 09:33:59;;;;;;;5.70;3.80;;;;;;;;;;4999002;28;20022;-81
2022/07/03 09:36:42;;;;;;;5.60;3.47;;;;;;;;;;5017488;28;20049;-81
2022/07/03 09:39:15;;;;;;;5.68;3.65;;;;;;;;;;5017237;28;20018;-81
2022/07/03 09:42:19;;;;;;;5.13;3.63;;;;;;;;;;5015839;28;20026;-80
2022/07/03 09:44:46;;;;;;;5.72;3.58;;;;;;;;;;4974010;28;20046;-80
2022/07/03 09:47:14;;;;;;;6.38;4.03;;;;;;;;;;4975821;28;20023;-81
2022/07/03 09:50:00;;;;;;;5.43;3.42;;;;;;;;;;4979707;28;20045;-80
2022/07/03 09:52:33;;;;;;;4.57;3.40;;;;;;;;;;4978719;28;20524;-82
2022/07/03 09:55:01;;;;;;;5.28;3.60;;;;;;;;;;4979083;28;20039;-81
2022/07/03 09:57:27;;;;;;;4.90;3.53;;;;;;;;;;4977754;28;20030;-82
2022/07/03 10:00:09;;;;;;;5.15;3.60;;;;;;;;;;4979331;28;20097;-81
2022/07/03 10:02:35;;;;;;;5.47;3.50;;;;;;;;;;4962712;28;20537;-82
2022/07/03 10:05:13;;;;;;;5.53;3.70;;;;;;;;;;4974025;28;20046;-82
2022/07/03 10:07:55;;;;;;;5.88;3.80;;;;;;;;;;4979473;28;20034;-82
2022/07/03 10:10:21;;;;;;;;;;;;;;;;;;4980277;28;20050;-82
2022/07/03 10:12:51;;;;;;;5.30;3.45;;;;;;;;;;4979529;28;19921;-82
2022/07/03 10:15:17;;;;;;;5.03;3.63;;;;;;;;;;4994831;28;20038;-81
2022/07/03 10:17:47;;;;;;;5.15;3.60;;;;;;;;;;5002723;28;20023;-82
2022/07/03 10:20:14;;;;;;;5.85;3.60;;;;;;;;;;4982207;28;20082;-81
2022/07/03 10:22:42;;;;;;;6.20;4.07;;;;;;;;;;4982505;28;20086;-81
2022/07/03 10:25:09;;;;;;;5.97;4.28;;;;;;;;;;4981794;28;20027;-81
2022/07/03 10:27:36;;;;;;;6.13;3.72;;;;;;;;;;5015718;28;20032;-82
2022/07/03 10:30:02;;;;;;;5.20;3.70;;;;;;;;;;5020339;28;20033;-82
2022/07/03 10:32:28;;;;;;;5.88;3.80;;;;;;;;;;5020066;28;20044;-82
2022/07/03 10:34:55;;;;;;;6.68;3.63;;;;;;;;;;4987900;28;20115;-81
2022/07/03 10:37:21;;;;;;;4.93;3.53;;;;;;;;;;5001122;28;20022;-81
2022/07/03 10:44:45;;;;;;;5.60;3.03;;;;;;;;;;5000997;28;20475;-81
2022/07/03 10:45:31;;;;;;;5.78;3.90;;;;;;;;;;4999478;28;20053;-82
2022/07/03 10:47:57;;;;;;;5.32;3.70;;;;;;;;;;5014771;28;20022;-84
2022/07/03 10:50:24;;;;;;;5.75;3.65;;;;;;;;;;5000007;28;20033;-81
2022/07/03 10:52:52;;;;;;;5.75;3.90;;;;;;;;;;4999805;28;20036;-83
2022/07/03 10:55:19;;;;;;;6.25;3.60;;;;;;;;;;4999765;28;20102;-80
2022/07/03 10:58:11;;;;;;;5.47;3.58;;;;;;;;;;5015242;28;20588;-81
2022/07/03 11:00:58;;;;;;;6.32;3.60;;;;;;;;;;5018073;28;20057;-81
2022/07/03 11:03:43;;;;;;;5.53;3.50;;;;;;;;;;5005296;28;20025;-81
2022/07/03 11:06:09;;;;;;;4.82;3.25;;;;;;;;;;5000806;28;20022;-80
2022/07/03 11:08:55;;;;;;;5.45;3.67;;;;;;;;;;5000001;28;20033;-81
2022/07/03 11:11:59;;;;;;;5.45;3.58;;;;;;;;;;4999449;28;20034;-81
2022/07/03 11:14:29;;;;;;;5.22;3.60;;;;;;;;;;4998293;28;20484;-81
2022/07/03 11:17:14;;;;;;;5.32;3.35;;;;;;;;;;5000559;28;20050;-80
2022/07/03 11:19:40;;;;;;;6.15;3.90;;;;;;;;;;4999510;28;20034;-82
2022/07/03 11:22:13;;;;;;;5.75;3.70;;;;;;;;;;4996753;28;20037;-80
2022/07/03 11:24:43;;;;;;;5.10;3.30;;;;;;;;;;4998934;28;20030;-82
2022/07/03 11:27:20;;;;;;;5.40;3.72;;;;;;;;;;4999674;28;20022;-83
2022/07/03 11:29:50;;;;;;;6.55;3.60;;;;;;;;;;4999778;28;20527;-82
2022/07/03 11:32:35;;;;;;;5.85;3.70;;;;;;;;;;5018857;28;20102;-81
2022/07/03 11:35:02;;;;;;;5.63;3.63;;;;;;;;;;5018963;28;20724;-80
2022/07/03 11:37:29;;;;;;;5.78;3.80;;;;;;;;;;5018297;28;20109;-79
2022/07/03 11:39:57;;;;;;;5.65;3.90;;;;;;;;;;5012893;28;20452;-80
2022/07/03 11:42:23;;;;;;;5.25;3.95;;;;;;;;;;4998868;28;20026;-79
2022/07/03 11:44:49;;;;;;;5.13;3.50;;;;;;;;;;4998825;28;20467;-80
2022/07/03 11:47:16;;;;;;;5.10;3.67;;;;;;;;;;4997643;28;20653;-79
2022/07/03 11:49:51;;;;;;;5.40;3.63;;;;;;;;;;4996398;28;20022;-78
2022/07/03 11:52:31;;;;;;;4.88;3.70;;;;;;;;;;4977967;28;20113;-79
2022/07/03 11:54:57;;;;;;;5.57;4.13;;;;;;;;;;4979719;28;20486;-79
2022/07/03 11:57:23;;;;;;;5.78;4.38;;;;;;;;;;4994733;28;20026;-79
2022/07/03 11:59:52;;;;;;;5.50;3.90;;;;;;;;;;5018383;28;20048;-80
2022/07/03 12:02:18;;;;;;;6.35;4.38;;;;;;;;;;5018583;28;20072;-80
2022/07/03 12:04:44;;;;;;;7.70;4.20;;;;;;;;;;5016215;28;20034;-83
2022/07/03 12:07:10;;;;;;;5.68;4.05;;;;;;;;;;5010304;28;20026;-79
2022/07/03 12:09:36;;;;;;;5.40;3.80;;;;;;;;;;4998626;28;20022;-79
2022/07/03 12:12:05;;;;;;;5.72;3.88;;;;;;;;;;4998070;28;20022;-80
2022/07/03 12:14:44;;;;;;;5.13;3.72;;;;;;;;;;4999275;28;20019;-82
2022/07/03 12:17:17;;;;;;;5.70;4.25;;;;;;;;;;4978581;28;20498;-79
2022/07/03 12:19:50;;;;;;;5.47;3.78;;;;;;;;;;4991144;28;20027;-79
2022/07/03 12:22:23;;;;;;;5.50;3.65;;;;;;;;;;5013593;28;20038;-79
2022/07/03 12:25:02;;;;;;;5.65;4.07;;;;;;;;;;5012844;28;20512;-79
2022/07/03 12:27:29;;;;;;;4.78;3.58;;;;;;;;;;4998977;28;20034;-79
2022/07/03 12:29:56;;;;;;;5.97;4.47;;;;;;;;;;4997082;28;20164;-79
2022/07/03 12:32:22;;;;;;;5.22;3.97;;;;;;;;;;5017060;28;20026;-79
2022/07/03 12:34:48;;;;;;;5.50;3.97;;;;;;;;;;5017221;28;20133;-82
2022/07/03 12:37:14;;;;;;;5.25;3.72;;;;;;;;;;5017242;28;20388;-82
2022/07/03 12:39:43;;;;;;;5.00;3.90;;;;;;;;;;5017270;28;20029;-82
2022/07/03 12:42:16;;;;;;;5.63;3.65;;;;;;;;;;5016890;28;20053;-83
2022/07/03 12:44:42;;;;;;;5.25;3.70;;;;;;;;;;5012734;28;20607;-82
2022/07/03 12:47:08;;;;;;;4.85;3.65;;;;;;;;;;5017718;28;20061;-82
2022/07/03 12:49:34;;;;;;;4.90;3.78;;;;;;;;;;5017143;28;20112;-82
2022/07/03 12:52:01;;;;;;;5.45;4.00;;;;;;;;;;5017638;28;20061;-82
2022/07/03 12:54:34;;;;;;;5.10;4.30;;;;;;;;;;5017656;28;20025;-82
2022/07/03 12:59:16;;;;;;;5.40;3.92;;;;;;;;;;5017919;28;20112;-82
2022/07/03 13:00:02;;;;;;;6.22;4.20;;;;;;;;;;5013077;28;20042;-79
2022/07/03 13:02:28;;;;;;;6.15;3.83;;;;;;;;;;4998236;28;20033;-80
2022/07/03 13:04:54;;;;;;;6.25;3.78;;;;;;;;;;4997649;28;20031;-80
2022/07/03 13:07:20;;;;;;;4.88;3.40;;;;;;;;;;4997814;28;20113;-80
2022/07/03 13:09:52;;;;;;;5.80;3.90;;;;;;;;;;4998087;28;20053;-80
2022/07/03 13:12:25;;;;;;;5.35;3.88;;;;;;;;;;4978470;28;20109;-79
2022/07/03 13:14:57;;;;;;;4.80;3.80;;;;;;;;;;4978247;28;20023;-82
2022/07/03 13:17:23;;;;;;;6.00;3.60;;;;;;;;;;4985626;28;20114;-82
2022/07/03 13:19:49;;;;;;;5.03;3.80;;;;;;;;;;5003075;28;20057;-81
2022/07/03 13:22:15;;;;;;;5.80;3.47;;;;;;;;;;5017547;28;20027;-82
2022/07/03 13:24:41;;;;;;;4.63;3.50;;;;;;;;;;5021290;28;20026;-80
2022/07/03 13:27:09;;;;;;;5.03;3.25;;;;;;;;;;5021240;28;20030;-80
2022/07/03 13:29:35;;;;;;;5.10;3.40;;;;;;;;;;5016650;28;20030;-80
2022/07/03 13:32:01;;;;;;;4.57;3.60;;;;;;;;;;5001222;28;20113;-80
2022/07/03 13:34:27;;;;;;;5.63;3.85;;;;;;;;;;5001916;28;20042;-81
2022/07/03 13:36:53;;;;;;;5.88;3.53;;;;;;;;;;5002490;28;20049;-81
2022/07/03 13:39:19;;;;;;;4.82;3.17;;;;;;;;;;5001598;28;20089;-80
2022/07/03 13:41:45;;;;;;;4.78;2.90;;;;;;;;;;5021328;28;20026;-81
2022/07/03 13:44:11;;;;;;;5.60;3.03;;;;;;;;;;5003706;28;20488;-80
2022/07/03 13:46:37;;;;;;;4.85;3.28;;;;;;;;;;5002135;28;20034;-80
2022/07/03 13:49:03;;;;;;;4.82;3.53;;;;;;;;;;5001700;28;20027;-80
2022/07/03 13:51:29;;;;;;;5.30;3.17;;;;;;;;;;5018237;28;20056;-80
2022/07/03 13:53:55;;;;;;;5.20;3.17;;;;;;;;;;5020991;28;20022;-80
2022/07/03 13:56:21;;;;;;;5.30;3.20;;;;;;;;;;5020324;28;20707;-80
2022/07/03 13:58:47;;;;;;;4.82;3.10;;;;;;;;;;5019840;28;20026;-80
2022/07/03 14:01:13;;;;;;;4.85;3.45;;;;;;;;;;5021095;28;20476;-80
2022/07/03 14:03:39;;;;;;;6.45;3.38;;;;;;;;;;5020881;28;20022;-80
2022/07/03 14:06:05;;;;;;;5.57;3.33;;;;;;;;;;5020807;28;20022;-80
2022/07/03 14:08:32;;;;;;;4.65;3.22;;;;;;;;;;5017390;28;20025;-80
2022/07/03 14:10:58;;;;;;;5.53;3.72;;;;;;;;;;5020484;28;20089;-80
2022/07/03 14:13:24;;;;;;;4.68;3.42;;;;;;;;;;4992224;28;20054;-81
2022/07/03 14:15:53;;;;;;;5.30;3.50;;;;;;;;;;4981648;28;20056;-80
2022/07/03 14:18:19;;;;;;;4.57;3.38;;;;;;;;;;5016743;28;20033;-80
2022/07/03 14:20:45;;;;;;;6.95;3.67;;;;;;;;;;5019500;28;20072;-81
2022/07/03 14:23:11;;;;;;;4.47;3.30;;;;;;;;;;5020550;28;20034;-80
2022/07/03 14:25:37;;;;;;;5.68;3.42;;;;;;;;;;5021000;28;20022;-81
2022/07/03 14:33:32;;;;;;;6.90;5.00;;;;;;;;;;5020279;28;20056;-80
2022/07/03 14:35:59;;;;;;;4.90;3.88;;;;;;;;;;5019391;28;20041;-80
2022/07/03 14:38:25;;;;;;;5.38;3.67;;;;;;;;;;5018621;28;20025;-80
2022/07/03 14:40:51;;;;;;;5.50;3.90;;;;;;;;;;5019341;28;20022;-80
2022/07/03 14:43:17;;;;;;;5.65;3.90;;;;;;;;;;5005525;28;20026;-81
2022/07/03 14:45:43;;;;;;;5.28;3.88;;;;;;;;;;5001143;28;20073;-80
2022/07/03 14:48:09;;;;;;;4.93;3.92;;;;;;;;;;4998032;28;20437;-79
2022/07/03 14:50:36;;;;;;;4.97;3.72;;;;;;;;;;4998189;28;20027;-79
2022/07/03 14:53:02;;;;;;;4.60;3.50;;;;;;;;;;4998425;28;20038;-80
2022/07/03 14:55:32;;;;;;;5.22;4.10;;;;;;;;;;4997294;28;20029;-79
2022/07/03 14:58:08;;;;;;;5.72;3.95;;;;;;;;;;4998112;28;20033;-80
2022/07/03 15:00:37;;;;;;;5.22;3.70;;;;;;;;;;5000640;28;20564;-80
2022/07/03 15:03:21;;;;;;;4.97;3.83;;;;;;;;;;5017008;28;20480;-80
2022/07/03 15:05:48;;;;;;;5.18;3.95;;;;;;;;;;5016983;28;20095;-80